sensor_id;sensor_type;location;lat;lon;timestamp;P1;durP1;ratioP1;P2;durP2;ratioP2
54384;SDS011;40284;52.878;5.998;2023-01-30T00:00:23;25.05;;;14.52;;
54384;SDS011;40284;52.878;5.998;2023-01-30T00:02:49;24.75;;;14.52;;
54384;SDS011;40284;52.878;5.998;2023-01-30T00:05:15;28.80;;;14.90;;
54384;SDS011;40284;52.878;5.998;2023-01-30T00:07:41;26.52;;;15.13;;
54384;SDS011;40284;52.878;5.998;2023-01-30T00:10:07;27.23;;;14.13;;
54384;SDS011;40284;52.878;5.998;2023-01-30T00:12:33;29.35;;;15.05;;
54384;SDS011;40284;52.878;5.998;2023-01-30T00:14:59;32.15;;;14.07;;
54384;SDS011;40284;52.878;5.998;2023-01-30T00:17:26;28.25;;;13.10;;
54384;SDS011;40284;52.878;5.998;2023-01-30T00:19:52;31.27;;;13.18;;
54384;SDS011;40284;52.878;5.998;2023-01-30T00:22:18;21.92;;;12.15;;
54384;SDS011;40284;52.878;5.998;2023-01-30T00:24:44;21.80;;;10.88;;
54384;SDS011;40284;52.878;5.998;2023-01-30T00:27:10;21.40;;;10.73;;
54384;SDS011;40284;52.878;5.998;2023-01-30T00:29:36;20.75;;;10.32;;
54384;SDS011;40284;52.878;5.998;2023-01-30T00:32:02;23.33;;;8.63;;
54384;SDS011;40284;52.878;5.998;2023-01-30T00:34:28;20.13;;;7.97;;
54384;SDS011;40284;52.878;5.998;2023-01-30T00:36:54;23.42;;;7.97;;
54384;SDS011;40284;52.878;5.998;2023-01-30T00:39:20;16.20;;;7.95;;
54384;SDS011;40284;52.878;5.998;2023-01-30T00:41:46;17.05;;;7.63;;
54384;SDS011;40284;52.878;5.998;2023-01-30T00:44:31;16.58;;;7.18;;
54384;SDS011;40284;52.878;5.998;2023-01-30T00:47:15;22.02;;;8.93;;
54384;SDS011;40284;52.878;5.998;2023-01-30T00:49:42;14.45;;;7.13;;
54384;SDS011;40284;52.878;5.998;2023-01-30T00:52:08;19.75;;;7.75;;
54384;SDS011;40284;52.878;5.998;2023-01-30T00:54:34;18.33;;;6.75;;
54384;SDS011;40284;52.878;5.998;2023-01-30T00:57:01;18.25;;;7.40;;
54384;SDS011;40284;52.878;5.998;2023-01-30T00:59:27;15.02;;;6.60;;
54384;SDS011;40284;52.878;5.998;2023-01-30T01:01:53;26.48;;;7.63;;
54384;SDS011;40284;52.878;5.998;2023-01-30T01:04:19;22.48;;;8.52;;
54384;SDS011;40284;52.878;5.998;2023-01-30T01:06:45;18.45;;;7.18;;
54384;SDS011;40284;52.878;5.998;2023-01-30T01:09:12;22.77;;;8.35;;
54384;SDS011;40284;52.878;5.998;2023-01-30T01:11:38;19.02;;;7.53;;
54384;SDS011;40284;52.878;5.998;2023-01-30T01:14:04;20.25;;;7.80;;
54384;SDS011;40284;52.878;5.998;2023-01-30T01:16:31;20.48;;;8.32;;
54384;SDS011;40284;52.878;5.998;2023-01-30T01:18:58;19.95;;;6.97;;
54384;SDS011;40284;52.878;5.998;2023-01-30T01:21:24;19.40;;;8.10;;
54384;SDS011;40284;52.878;5.998;2023-01-30T01:23:51;24.70;;;7.78;;
54384;SDS011;40284;52.878;5.998;2023-01-30T01:26:18;21.20;;;7.80;;
54384;SDS011;40284;52.878;5.998;2023-01-30T01:28:44;21.27;;;8.52;;
54384;SDS011;40284;52.878;5.998;2023-01-30T01:31:10;27.40;;;9.07;;
54384;SDS011;40284;52.878;5.998;2023-01-30T01:33:36;15.38;;;7.07;;
54384;SDS011;40284;52.878;5.998;2023-01-30T01:36:03;20.30;;;7.50;;
54384;SDS011;40284;52.878;5.998;2023-01-30T01:38:29;23.45;;;7.53;;
54384;SDS011;40284;52.878;5.998;2023-01-30T01:40:55;20.98;;;7.25;;
54384;SDS011;40284;52.878;5.998;2023-01-30T01:43:37;25.38;;;7.82;;
54384;SDS011;40284;52.878;5.998;2023-01-30T01:46:17;24.50;;;8.45;;
54384;SDS011;40284;52.878;5.998;2023-01-30T01:48:50;20.40;;;7.72;;
54384;SDS011;40284;52.878;5.998;2023-01-30T01:51:20;22.88;;;7.40;;
54384;SDS011;40284;52.878;5.998;2023-01-30T01:53:54;21.63;;;6.85;;
54384;SDS011;40284;52.878;5.998;2023-01-30T01:56:21;19.75;;;6.93;;
54384;SDS011;40284;52.878;5.998;2023-01-30T01:58:55;16.58;;;6.55;;
54384;SDS011;40284;52.878;5.998;2023-01-30T02:01:22;24.58;;;7.30;;
54384;SDS011;40284;52.878;5.998;2023-01-30T02:03:49;22.50;;;7.80;;
54384;SDS011;40284;52.878;5.998;2023-01-30T02:06:17;18.98;;;6.25;;
54384;SDS011;40284;52.878;5.998;2023-01-30T02:08:48;22.92;;;7.35;;
54384;SDS011;40284;52.878;5.998;2023-01-30T02:11:24;17.35;;;6.63;;
54384;SDS011;40284;52.878;5.998;2023-01-30T02:13:52;25.70;;;6.97;;
54384;SDS011;40284;52.878;5.998;2023-01-30T02:16:18;23.60;;;5.90;;
54384;SDS011;40284;52.878;5.998;2023-01-30T02:18:44;23.55;;;7.25;;
54384;SDS011;40284;52.878;5.998;2023-01-30T02:26:35;24.92;;;6.88;;
54384;SDS011;40284;52.878;5.998;2023-01-30T02:31:49;22.13;;;6.57;;
54384;SDS011;40284;52.878;5.998;2023-01-30T02:47:28;21.13;;;7.60;;
54384;SDS011;40284;52.878;5.998;2023-01-30T02:50:06;23.25;;;6.80;;
54384;SDS011;40284;52.878;5.998;2023-01-30T02:52:33;23.77;;;6.43;;
54384;SDS011;40284;52.878;5.998;2023-01-30T02:55:00;23.63;;;6.85;;
54384;SDS011;40284;52.878;5.998;2023-01-30T02:57:31;34.63;;;7.30;;
54384;SDS011;40284;52.878;5.998;2023-01-30T02:59:57;26.55;;;7.63;;
54384;SDS011;40284;52.878;5.998;2023-01-30T03:02:31;22.42;;;6.50;;
54384;SDS011;40284;52.878;5.998;2023-01-30T03:07:44;21.20;;;6.20;;
54384;SDS011;40284;52.878;5.998;2023-01-30T03:10:16;24.20;;;6.53;;
54384;SDS011;40284;52.878;5.998;2023-01-30T03:18:12;21.33;;;6.25;;
54384;SDS011;40284;52.878;5.998;2023-01-30T03:20:39;27.23;;;6.82;;
54384;SDS011;40284;52.878;5.998;2023-01-30T03:23:06;28.75;;;6.90;;
54384;SDS011;40284;52.878;5.998;2023-01-30T03:25:32;28.50;;;7.57;;
54384;SDS011;40284;52.878;5.998;2023-01-30T03:27:59;23.05;;;6.18;;
54384;SDS011;40284;52.878;5.998;2023-01-30T03:30:26;25.02;;;6.78;;
54384;SDS011;40284;52.878;5.998;2023-01-30T03:32:52;28.08;;;8.23;;
54384;SDS011;40284;52.878;5.998;2023-01-30T03:35:18;32.22;;;6.53;;
54384;SDS011;40284;52.878;5.998;2023-01-30T03:37:45;31.88;;;7.78;;
54384;SDS011;40284;52.878;5.998;2023-01-30T03:40:11;24.83;;;6.63;;
54384;SDS011;40284;52.878;5.998;2023-01-30T03:42:38;35.28;;;7.47;;
54384;SDS011;40284;52.878;5.998;2023-01-30T03:45:04;23.55;;;5.63;;
54384;SDS011;40284;52.878;5.998;2023-01-30T03:47:30;27.58;;;6.20;;
54384;SDS011;40284;52.878;5.998;2023-01-30T03:49:56;27.60;;;6.65;;
54384;SDS011;40284;52.878;5.998;2023-01-30T03:52:22;24.30;;;6.15;;
54384;SDS011;40284;52.878;5.998;2023-01-30T03:54:48;29.48;;;6.88;;
54384;SDS011;40284;52.878;5.998;2023-01-30T03:57:14;29.20;;;6.80;;
54384;SDS011;40284;52.878;5.998;2023-01-30T03:59:40;28.85;;;7.57;;
54384;SDS011;40284;52.878;5.998;2023-01-30T04:02:07;22.65;;;5.55;;
54384;SDS011;40284;52.878;5.998;2023-01-30T04:04:33;19.77;;;5.60;;
54384;SDS011;40284;52.878;5.998;2023-01-30T04:06:59;15.52;;;5.80;;
54384;SDS011;40284;52.878;5.998;2023-01-30T04:09:25;26.65;;;5.40;;
54384;SDS011;40284;52.878;5.998;2023-01-30T04:11:51;28.77;;;5.75;;
54384;SDS011;40284;52.878;5.998;2023-01-30T04:14:18;24.88;;;6.25;;
54384;SDS011;40284;52.878;5.998;2023-01-30T04:16:44;31.98;;;5.40;;
54384;SDS011;40284;52.878;5.998;2023-01-30T04:19:10;21.17;;;5.47;;
54384;SDS011;40284;52.878;5.998;2023-01-30T04:21:36;26.10;;;5.13;;
54384;SDS011;40284;52.878;5.998;2023-01-30T04:24:02;22.83;;;4.78;;
54384;SDS011;40284;52.878;5.998;2023-01-30T04:26:29;33.13;;;6.28;;
54384;SDS011;40284;52.878;5.998;2023-01-30T04:28:55;25.88;;;6.18;;
54384;SDS011;40284;52.878;5.998;2023-01-30T04:31:21;23.08;;;5.03;;
54384;SDS011;40284;52.878;5.998;2023-01-30T04:33:47;22.90;;;5.32;;
54384;SDS011;40284;52.878;5.998;2023-01-30T04:36:13;26.20;;;5.55;;
54384;SDS011;40284;52.878;5.998;2023-01-30T04:38:39;25.05;;;4.45;;
54384;SDS011;40284;52.878;5.998;2023-01-30T04:41:05;24.67;;;5.65;;
54384;SDS011;40284;52.878;5.998;2023-01-30T04:43:31;26.25;;;4.97;;
54384;SDS011;40284;52.878;5.998;2023-01-30T04:45:57;29.10;;;5.43;;
54384;SDS011;40284;52.878;5.998;2023-01-30T04:48:24;23.48;;;5.10;;
54384;SDS011;40284;52.878;5.998;2023-01-30T04:50:51;32.03;;;5.78;;
54384;SDS011;40284;52.878;5.998;2023-01-30T04:53:17;27.60;;;6.05;;
54384;SDS011;40284;52.878;5.998;2023-01-30T04:55:44;24.58;;;5.75;;
54384;SDS011;40284;52.878;5.998;2023-01-30T04:58:10;27.13;;;7.20;;
54384;SDS011;40284;52.878;5.998;2023-01-30T05:00:37;29.05;;;5.75;;
54384;SDS011;40284;52.878;5.998;2023-01-30T05:03:03;29.08;;;6.53;;
54384;SDS011;40284;52.878;5.998;2023-01-30T05:05:30;21.77;;;5.03;;
54384;SDS011;40284;52.878;5.998;2023-01-30T05:07:56;30.95;;;5.45;;
54384;SDS011;40284;52.878;5.998;2023-01-30T05:10:22;28.83;;;5.60;;
54384;SDS011;40284;52.878;5.998;2023-01-30T05:12:48;25.38;;;4.93;;
54384;SDS011;40284;52.878;5.998;2023-01-30T05:15:14;20.92;;;5.68;;
54384;SDS011;40284;52.878;5.998;2023-01-30T05:17:41;31.67;;;5.85;;
54384;SDS011;40284;52.878;5.998;2023-01-30T05:20:07;38.92;;;7.35;;
54384;SDS011;40284;52.878;5.998;2023-01-30T05:22:34;32.78;;;7.03;;
54384;SDS011;40284;52.878;5.998;2023-01-30T05:25:00;32.70;;;5.65;;
54384;SDS011;40284;52.878;5.998;2023-01-30T05:27:26;34.22;;;6.28;;
54384;SDS011;40284;52.878;5.998;2023-01-30T05:29:52;27.98;;;5.72;;
54384;SDS011;40284;52.878;5.998;2023-01-30T05:32:18;24.40;;;5.60;;
54384;SDS011;40284;52.878;5.998;2023-01-30T05:34:45;25.42;;;5.25;;
54384;SDS011;40284;52.878;5.998;2023-01-30T05:37:11;29.15;;;6.03;;
54384;SDS011;40284;52.878;5.998;2023-01-30T05:39:37;24.73;;;5.95;;
54384;SDS011;40284;52.878;5.998;2023-01-30T05:42:03;23.83;;;4.63;;
54384;SDS011;40284;52.878;5.998;2023-01-30T05:44:30;28.85;;;4.70;;
54384;SDS011;40284;52.878;5.998;2023-01-30T05:46:56;29.27;;;5.15;;
54384;SDS011;40284;52.878;5.998;2023-01-30T05:49:22;25.52;;;5.25;;
54384;SDS011;40284;52.878;5.998;2023-01-30T05:51:48;21.50;;;4.95;;
54384;SDS011;40284;52.878;5.998;2023-01-30T05:54:15;42.72;;;9.57;;
54384;SDS011;40284;52.878;5.998;2023-01-30T05:56:41;28.50;;;6.00;;
54384;SDS011;40284;52.878;5.998;2023-01-30T05:59:08;21.77;;;6.05;;
54384;SDS011;40284;52.878;5.998;2023-01-30T06:01:35;26.98;;;5.57;;
54384;SDS011;40284;52.878;5.998;2023-01-30T06:04:02;25.52;;;4.93;;
54384;SDS011;40284;52.878;5.998;2023-01-30T06:06:28;28.02;;;4.38;;
54384;SDS011;40284;52.878;5.998;2023-01-30T06:08:55;37.67;;;6.82;;
54384;SDS011;40284;52.878;5.998;2023-01-30T06:11:21;28.35;;;5.07;;
54384;SDS011;40284;52.878;5.998;2023-01-30T06:13:47;26.38;;;6.00;;
54384;SDS011;40284;52.878;5.998;2023-01-30T06:16:14;27.27;;;5.45;;
54384;SDS011;40284;52.878;5.998;2023-01-30T06:18:40;26.20;;;4.97;;
54384;SDS011;40284;52.878;5.998;2023-01-30T06:21:07;26.83;;;7.13;;
54384;SDS011;40284;52.878;5.998;2023-01-30T06:23:33;20.08;;;3.88;;
54384;SDS011;40284;52.878;5.998;2023-01-30T06:25:59;32.40;;;6.40;;
54384;SDS011;40284;52.878;5.998;2023-01-30T06:28:25;26.75;;;5.75;;
54384;SDS011;40284;52.878;5.998;2023-01-30T06:30:52;25.23;;;4.70;;
54384;SDS011;40284;52.878;5.998;2023-01-30T06:33:18;27.60;;;4.75;;
54384;SDS011;40284;52.878;5.998;2023-01-30T06:35:46;21.98;;;6.03;;
54384;SDS011;40284;52.878;5.998;2023-01-30T06:38:13;20.75;;;4.53;;
54384;SDS011;40284;52.878;5.998;2023-01-30T06:40:39;34.55;;;5.28;;
54384;SDS011;40284;52.878;5.998;2023-01-30T06:43:06;27.73;;;5.13;;
54384;SDS011;40284;52.878;5.998;2023-01-30T06:45:32;25.48;;;4.88;;
54384;SDS011;40284;52.878;5.998;2023-01-30T06:47:58;35.55;;;6.82;;
54384;SDS011;40284;52.878;5.998;2023-01-30T06:50:25;28.00;;;5.78;;
54384;SDS011;40284;52.878;5.998;2023-01-30T06:52:52;24.25;;;4.70;;
54384;SDS011;40284;52.878;5.998;2023-01-30T06:55:19;28.95;;;5.13;;
54384;SDS011;40284;52.878;5.998;2023-01-30T06:57:46;35.20;;;5.95;;
54384;SDS011;40284;52.878;5.998;2023-01-30T07:00:13;28.50;;;5.53;;
54384;SDS011;40284;52.878;5.998;2023-01-30T07:02:39;32.85;;;5.63;;
54384;SDS011;40284;52.878;5.998;2023-01-30T07:05:06;21.27;;;4.32;;
54384;SDS011;40284;52.878;5.998;2023-01-30T07:07:33;25.08;;;5.00;;
54384;SDS011;40284;52.878;5.998;2023-01-30T07:10:00;27.85;;;5.68;;
54384;SDS011;40284;52.878;5.998;2023-01-30T07:12:26;27.08;;;4.90;;
54384;SDS011;40284;52.878;5.998;2023-01-30T07:14:52;22.33;;;5.13;;
54384;SDS011;40284;52.878;5.998;2023-01-30T07:17:19;28.83;;;4.72;;
54384;SDS011;40284;52.878;5.998;2023-01-30T07:19:45;24.27;;;4.68;;
54384;SDS011;40284;52.878;5.998;2023-01-30T07:22:12;23.70;;;5.13;;
54384;SDS011;40284;52.878;5.998;2023-01-30T07:24:38;33.90;;;5.50;;
54384;SDS011;40284;52.878;5.998;2023-01-30T07:27:11;26.98;;;5.25;;
54384;SDS011;40284;52.878;5.998;2023-01-30T07:29:37;34.13;;;6.75;;
54384;SDS011;40284;52.878;5.998;2023-01-30T07:32:04;35.17;;;6.45;;
54384;SDS011;40284;52.878;5.998;2023-01-30T07:34:31;20.77;;;5.43;;
54384;SDS011;40284;52.878;5.998;2023-01-30T07:36:57;35.15;;;5.85;;
54384;SDS011;40284;52.878;5.998;2023-01-30T07:39:23;33.00;;;5.32;;
54384;SDS011;40284;52.878;5.998;2023-01-30T07:41:49;31.90;;;6.18;;
54384;SDS011;40284;52.878;5.998;2023-01-30T07:44:15;27.05;;;5.32;;
54384;SDS011;40284;52.878;5.998;2023-01-30T07:46:41;28.58;;;8.48;;
54384;SDS011;40284;52.878;5.998;2023-01-30T07:49:08;29.50;;;5.57;;
54384;SDS011;40284;52.878;5.998;2023-01-30T07:51:34;23.20;;;4.95;;
54384;SDS011;40284;52.878;5.998;2023-01-30T07:54:00;31.52;;;5.72;;
54384;SDS011;40284;52.878;5.998;2023-01-30T07:56:28;27.38;;;5.30;;
54384;SDS011;40284;52.878;5.998;2023-01-30T07:58:54;29.00;;;5.70;;
54384;SDS011;40284;52.878;5.998;2023-01-30T08:01:21;31.38;;;6.50;;
54384;SDS011;40284;52.878;5.998;2023-01-30T08:03:47;36.70;;;7.10;;
54384;SDS011;40284;52.878;5.998;2023-01-30T08:06:13;30.02;;;6.25;;
54384;SDS011;40284;52.878;5.998;2023-01-30T08:08:40;27.60;;;6.05;;
54384;SDS011;40284;52.878;5.998;2023-01-30T08:11:06;22.50;;;5.53;;
54384;SDS011;40284;52.878;5.998;2023-01-30T08:13:33;30.10;;;5.63;;
54384;SDS011;40284;52.878;5.998;2023-01-30T08:16:00;28.25;;;7.00;;
54384;SDS011;40284;52.878;5.998;2023-01-30T08:18:29;27.80;;;5.97;;
54384;SDS011;40284;52.878;5.998;2023-01-30T08:20:56;34.30;;;6.63;;
54384;SDS011;40284;52.878;5.998;2023-01-30T08:23:22;28.80;;;5.95;;
54384;SDS011;40284;52.878;5.998;2023-01-30T08:25:48;35.05;;;6.30;;
54384;SDS011;40284;52.878;5.998;2023-01-30T08:28:14;27.35;;;5.20;;
54384;SDS011;40284;52.878;5.998;2023-01-30T08:30:40;29.63;;;5.30;;
54384;SDS011;40284;52.878;5.998;2023-01-30T08:33:06;33.67;;;8.15;;
54384;SDS011;40284;52.878;5.998;2023-01-30T08:35:33;32.28;;;6.65;;
54384;SDS011;40284;52.878;5.998;2023-01-30T08:37:59;33.63;;;6.38;;
54384;SDS011;40284;52.878;5.998;2023-01-30T08:40:25;24.48;;;5.07;;
54384;SDS011;40284;52.878;5.998;2023-01-30T08:42:51;30.70;;;6.10;;
54384;SDS011;40284;52.878;5.998;2023-01-30T08:45:17;29.10;;;5.32;;
54384;SDS011;40284;52.878;5.998;2023-01-30T08:47:43;29.92;;;5.75;;
54384;SDS011;40284;52.878;5.998;2023-01-30T08:50:09;27.45;;;4.88;;
54384;SDS011;40284;52.878;5.998;2023-01-30T08:52:36;27.48;;;5.03;;
54384;SDS011;40284;52.878;5.998;2023-01-30T08:55:02;30.15;;;5.63;;
54384;SDS011;40284;52.878;5.998;2023-01-30T08:57:28;38.45;;;7.82;;
54384;SDS011;40284;52.878;5.998;2023-01-30T08:59:56;33.97;;;7.28;;
54384;SDS011;40284;52.878;5.998;2023-01-30T09:02:22;27.08;;;5.38;;
54384;SDS011;40284;52.878;5.998;2023-01-30T09:04:48;31.38;;;6.60;;
54384;SDS011;40284;52.878;5.998;2023-01-30T09:07:14;25.73;;;6.88;;
54384;SDS011;40284;52.878;5.998;2023-01-30T09:09:40;30.02;;;6.22;;
54384;SDS011;40284;52.878;5.998;2023-01-30T09:12:06;24.65;;;4.90;;
54384;SDS011;40284;52.878;5.998;2023-01-30T09:14:33;29.70;;;6.30;;
54384;SDS011;40284;52.878;5.998;2023-01-30T09:16:59;28.42;;;5.82;;
54384;SDS011;40284;52.878;5.998;2023-01-30T09:19:25;26.40;;;6.32;;
54384;SDS011;40284;52.878;5.998;2023-01-30T09:21:52;27.10;;;7.00;;
54384;SDS011;40284;52.878;5.998;2023-01-30T09:24:18;38.35;;;7.25;;
54384;SDS011;40284;52.878;5.998;2023-01-30T09:26:44;29.98;;;6.05;;
54384;SDS011;40284;52.878;5.998;2023-01-30T09:29:11;29.90;;;5.50;;
54384;SDS011;40284;52.878;5.998;2023-01-30T09:31:37;21.13;;;5.72;;
54384;SDS011;40284;52.878;5.998;2023-01-30T09:34:03;31.50;;;6.57;;
54384;SDS011;40284;52.878;5.998;2023-01-30T09:36:29;32.25;;;6.78;;
54384;SDS011;40284;52.878;5.998;2023-01-30T09:38:56;30.98;;;6.68;;
54384;SDS011;40284;52.878;5.998;2023-01-30T09:46:47;31.08;;;6.03;;
54384;SDS011;40284;52.878;5.998;2023-01-30T09:54:28;29.95;;;5.72;;
54384;SDS011;40284;52.878;5.998;2023-01-30T09:57:00;32.53;;;5.53;;
54384;SDS011;40284;52.878;5.998;2023-01-30T09:59:43;29.52;;;5.85;;
54384;SDS011;40284;52.878;5.998;2023-01-30T10:02:25;30.48;;;6.95;;
54384;SDS011;40284;52.878;5.998;2023-01-30T10:04:53;27.38;;;6.05;;
54384;SDS011;40284;52.878;5.998;2023-01-30T10:07:30;29.00;;;5.68;;
54384;SDS011;40284;52.878;5.998;2023-01-30T10:15:07;29.60;;;5.65;;
54384;SDS011;40284;52.878;5.998;2023-01-30T10:23:08;27.67;;;6.35;;
54384;SDS011;40284;52.878;5.998;2023-01-30T10:25:44;33.75;;;7.43;;
54384;SDS011;40284;52.878;5.998;2023-01-30T10:28:30;28.42;;;5.93;;
54384;SDS011;40284;52.878;5.998;2023-01-30T10:31:04;30.52;;;6.40;;
54384;SDS011;40284;52.878;5.998;2023-01-30T10:38:33;23.73;;;6.03;;
54384;SDS011;40284;52.878;5.998;2023-01-30T10:41:05;29.98;;;5.57;;
54384;SDS011;40284;52.878;5.998;2023-01-30T10:43:37;26.38;;;6.03;;
54384;SDS011;40284;52.878;5.998;2023-01-30T10:48:47;29.80;;;5.93;;
54384;SDS011;40284;52.878;5.998;2023-01-30T10:51:17;32.65;;;6.18;;
54384;SDS011;40284;52.878;5.998;2023-01-30T10:53:49;32.55;;;6.47;;
54384;SDS011;40284;52.878;5.998;2023-01-30T10:58:53;32.97;;;6.65;;
54384;SDS011;40284;52.878;5.998;2023-01-30T11:01:30;28.85;;;5.75;;
54384;SDS011;40284;52.878;5.998;2023-01-30T11:04:06;29.95;;;6.25;;
54384;SDS011;40284;52.878;5.998;2023-01-30T11:06:37;36.95;;;7.20;;
54384;SDS011;40284;52.878;5.998;2023-01-30T11:09:03;38.78;;;6.85;;
54384;SDS011;40284;52.878;5.998;2023-01-30T11:11:31;37.08;;;7.43;;
54384;SDS011;40284;52.878;5.998;2023-01-30T11:16:27;32.85;;;7.03;;
54384;SDS011;40284;52.878;5.998;2023-01-30T11:18:53;45.80;;;7.13;;
54384;SDS011;40284;52.878;5.998;2023-01-30T11:21:27;33.05;;;7.60;;
54384;SDS011;40284;52.878;5.998;2023-01-30T11:23:54;45.25;;;7.88;;
54384;SDS011;40284;52.878;5.998;2023-01-30T11:26:38;26.40;;;5.22;;
54384;SDS011;40284;52.878;5.998;2023-01-30T11:31:39;24.42;;;5.57;;
54384;SDS011;40284;52.878;5.998;2023-01-30T11:34:13;26.30;;;4.95;;
54384;SDS011;40284;52.878;5.998;2023-01-30T11:36:40;40.45;;;6.30;;
54384;SDS011;40284;52.878;5.998;2023-01-30T11:41:56;31.83;;;6.80;;
54384;SDS011;40284;52.878;5.998;2023-01-30T11:44:34;36.80;;;6.72;;
54384;SDS011;40284;52.878;5.998;2023-01-30T11:47:05;24.27;;;5.90;;
54384;SDS011;40284;52.878;5.998;2023-01-30T11:49:42;39.83;;;7.78;;
54384;SDS011;40284;52.878;5.998;2023-01-30T11:52:15;32.88;;;7.05;;
54384;SDS011;40284;52.878;5.998;2023-01-30T11:54:42;33.42;;;7.60;;
54384;SDS011;40284;52.878;5.998;2023-01-30T11:57:10;34.88;;;6.45;;
54384;SDS011;40284;52.878;5.998;2023-01-30T11:59:42;30.20;;;5.85;;
54384;SDS011;40284;52.878;5.998;2023-01-30T12:02:17;37.55;;;6.50;;
54384;SDS011;40284;52.878;5.998;2023-01-30T12:04:45;28.20;;;7.13;;
54384;SDS011;40284;52.878;5.998;2023-01-30T12:07:20;28.67;;;6.00;;
54384;SDS011;40284;52.878;5.998;2023-01-30T12:09:46;29.80;;;5.60;;
54384;SDS011;40284;52.878;5.998;2023-01-30T12:20:15;16.13;;;4.32;;
54384;SDS011;40284;52.878;5.998;2023-01-30T12:22:53;12.40;;;3.28;;
54384;SDS011;40284;52.878;5.998;2023-01-30T12:25:25;14.70;;;3.55;;
54384;SDS011;40284;52.878;5.998;2023-01-30T12:28:00;15.63;;;5.75;;
54384;SDS011;40284;52.878;5.998;2023-01-30T12:30:29;29.83;;;5.03;;
54384;SDS011;40284;52.878;5.998;2023-01-30T12:33:00;24.25;;;4.78;;
54384;SDS011;40284;52.878;5.998;2023-01-30T12:35:33;23.05;;;4.65;;
54384;SDS011;40284;52.878;5.998;2023-01-30T12:41:21;18.80;;;4.70;;
54384;SDS011;40284;52.878;5.998;2023-01-30T12:46:03;25.75;;;5.07;;
54384;SDS011;40284;52.878;5.998;2023-01-30T12:54:22;26.55;;;5.07;;
54384;SDS011;40284;52.878;5.998;2023-01-30T12:57:07;32.65;;;5.97;;
54384;SDS011;40284;52.878;5.998;2023-01-30T13:12:52;29.55;;;6.35;;
54384;SDS011;40284;52.878;5.998;2023-01-30T13:16:08;29.45;;;6.80;;
54384;SDS011;40284;52.878;5.998;2023-01-30T13:18:17;37.47;;;6.30;;
54384;SDS011;40284;52.878;5.998;2023-01-30T13:25:58;33.83;;;6.35;;
54384;SDS011;40284;52.878;5.998;2023-01-30T13:28:32;41.40;;;6.93;;
54384;SDS011;40284;52.878;5.998;2023-01-30T13:30:59;34.35;;;6.20;;
54384;SDS011;40284;52.878;5.998;2023-01-30T13:33:34;35.95;;;6.25;;
54384;SDS011;40284;52.878;5.998;2023-01-30T13:36:06;50.78;;;7.82;;
54384;SDS011;40284;52.878;5.998;2023-01-30T13:38:37;33.33;;;7.22;;
54384;SDS011;40284;52.878;5.998;2023-01-30T13:41:05;43.22;;;7.93;;
54384;SDS011;40284;52.878;5.998;2023-01-30T13:43:33;31.52;;;6.47;;
54384;SDS011;40284;52.878;5.998;2023-01-30T13:46:02;33.95;;;7.07;;
54384;SDS011;40284;52.878;5.998;2023-01-30T13:48:35;34.55;;;5.78;;
54384;SDS011;40284;52.878;5.998;2023-01-30T13:53:57;42.95;;;8.25;;
54384;SDS011;40284;52.878;5.998;2023-01-30T13:56:34;34.75;;;5.93;;
54384;SDS011;40284;52.878;5.998;2023-01-30T14:07:30;36.30;;;6.25;;
54384;SDS011;40284;52.878;5.998;2023-01-30T14:15:04;39.33;;;7.15;;
54384;SDS011;40284;52.878;5.998;2023-01-30T14:17:31;30.70;;;6.00;;
54384;SDS011;40284;52.878;5.998;2023-01-30T14:27:54;29.42;;;6.20;;
54384;SDS011;40284;52.878;5.998;2023-01-30T14:32:56;45.63;;;7.13;;
54384;SDS011;40284;52.878;5.998;2023-01-30T14:35:30;41.92;;;8.13;;
54384;SDS011;40284;52.878;5.998;2023-01-30T14:53:57;29.13;;;6.20;;
54384;SDS011;40284;52.878;5.998;2023-01-30T14:59:15;40.65;;;7.88;;
54384;SDS011;40284;52.878;5.998;2023-01-30T15:04:18;28.38;;;6.90;;
54384;SDS011;40284;52.878;5.998;2023-01-30T15:06:46;36.25;;;6.72;;
54384;SDS011;40284;52.878;5.998;2023-01-30T15:09:16;33.92;;;7.15;;
54384;SDS011;40284;52.878;5.998;2023-01-30T15:11:42;36.47;;;8.60;;
54384;SDS011;40284;52.878;5.998;2023-01-30T15:17:01;38.97;;;6.80;;
54384;SDS011;40284;52.878;5.998;2023-01-30T15:29:54;37.08;;;10.23;;
54384;SDS011;40284;52.878;5.998;2023-01-30T15:32:23;34.08;;;6.38;;
54384;SDS011;40284;52.878;5.998;2023-01-30T15:35:23;33.88;;;7.75;;
54384;SDS011;40284;52.878;5.998;2023-01-30T15:42:49;34.28;;;6.20;;
54384;SDS011;40284;52.878;5.998;2023-01-30T15:50:36;53.28;;;6.82;;
54384;SDS011;40284;52.878;5.998;2023-01-30T15:53:02;34.33;;;5.60;;
54384;SDS011;40284;52.878;5.998;2023-01-30T15:55:29;38.20;;;6.22;;
54384;SDS011;40284;52.878;5.998;2023-01-30T15:57:58;26.33;;;5.38;;
54384;SDS011;40284;52.878;5.998;2023-01-30T16:00:30;43.15;;;6.47;;
54384;SDS011;40284;52.878;5.998;2023-01-30T16:02:58;35.08;;;5.65;;
54384;SDS011;40284;52.878;5.998;2023-01-30T16:05:25;33.75;;;6.65;;
54384;SDS011;40284;52.878;5.998;2023-01-30T16:07:53;62.00;;;9.73;;
54384;SDS011;40284;52.878;5.998;2023-01-30T16:10:20;28.30;;;5.55;;
54384;SDS011;40284;52.878;5.998;2023-01-30T16:12:47;26.25;;;5.10;;
54384;SDS011;40284;52.878;5.998;2023-01-30T16:17:44;34.97;;;5.00;;
54384;SDS011;40284;52.878;5.998;2023-01-30T16:20:12;29.52;;;5.65;;
54384;SDS011;40284;52.878;5.998;2023-01-30T16:22:40;24.98;;;5.75;;
54384;SDS011;40284;52.878;5.998;2023-01-30T16:25:10;23.48;;;5.38;;
54384;SDS011;40284;52.878;5.998;2023-01-30T16:27:40;31.15;;;7.43;;
54384;SDS011;40284;52.878;5.998;2023-01-30T16:30:06;28.90;;;6.18;;
54384;SDS011;40284;52.878;5.998;2023-01-30T16:32:33;31.95;;;6.05;;
54384;SDS011;40284;52.878;5.998;2023-01-30T16:37:44;42.25;;;9.05;;
54384;SDS011;40284;52.878;5.998;2023-01-30T16:40:15;25.27;;;6.03;;
54384;SDS011;40284;52.878;5.998;2023-01-30T16:42:53;27.20;;;7.22;;
54384;SDS011;40284;52.878;5.998;2023-01-30T16:50:37;27.83;;;5.50;;
54384;SDS011;40284;52.878;5.998;2023-01-30T16:53:03;25.55;;;4.50;;
54384;SDS011;40284;52.878;5.998;2023-01-30T16:55:30;16.77;;;4.80;;
54384;SDS011;40284;52.878;5.998;2023-01-30T16:57:57;22.27;;;4.88;;
54384;SDS011;40284;52.878;5.998;2023-01-30T17:00:27;24.60;;;5.63;;
54384;SDS011;40284;52.878;5.998;2023-01-30T17:02:58;34.00;;;6.28;;
54384;SDS011;40284;52.878;5.998;2023-01-30T17:05:28;27.98;;;4.80;;
54384;SDS011;40284;52.878;5.998;2023-01-30T17:07:55;29.55;;;5.40;;
54384;SDS011;40284;52.878;5.998;2023-01-30T17:12:54;27.60;;;6.70;;
54384;SDS011;40284;52.878;5.998;2023-01-30T17:17:46;38.28;;;9.65;;
54384;SDS011;40284;52.878;5.998;2023-01-30T17:20:13;31.70;;;7.50;;
54384;SDS011;40284;52.878;5.998;2023-01-30T17:22:43;36.03;;;6.47;;
54384;SDS011;40284;52.878;5.998;2023-01-30T17:25:15;40.80;;;6.07;;
54384;SDS011;40284;52.878;5.998;2023-01-30T17:27:42;33.95;;;6.00;;
54384;SDS011;40284;52.878;5.998;2023-01-30T17:30:13;29.58;;;6.22;;
54384;SDS011;40284;52.878;5.998;2023-01-30T17:32:39;59.05;;;8.80;;
54384;SDS011;40284;52.878;5.998;2023-01-30T17:35:05;26.08;;;5.35;;
54384;SDS011;40284;52.878;5.998;2023-01-30T17:37:31;33.60;;;6.88;;
54384;SDS011;40284;52.878;5.998;2023-01-30T17:39:59;33.00;;;7.68;;
54384;SDS011;40284;52.878;5.998;2023-01-30T17:42:25;38.67;;;6.82;;
54384;SDS011;40284;52.878;5.998;2023-01-30T17:44:51;43.97;;;7.18;;
54384;SDS011;40284;52.878;5.998;2023-01-30T17:47:18;28.70;;;6.05;;
54384;SDS011;40284;52.878;5.998;2023-01-30T17:49:45;35.17;;;6.65;;
54384;SDS011;40284;52.878;5.998;2023-01-30T17:52:12;34.05;;;6.40;;